Terminal Aerodrome Forecast
Issued by NWS Twin Cities, MN

Home | Current Version | Previous Version | Text Only | Print | Product List | Glossary Off
Versions: 1 2 3 4 5 6 7 8 9 10 11 12 13 14 15 16 17 18 19

000
FTUS43 KMPX 091133
TAFSTC
TAF
KSTC 091133Z 0912/1012 35011G18KT P6SM -SHSN OVC025
     FM091700 32008KT P6SM BKN150
     FM092200 23008KT P6SM OVC100
     FM100700 28008KT P6SM BKN250=

USA.gov is the U.S. government's official web portal to all federal, state and local government web resources and services.